Time;durP1;ratioP1;P1;durP2;ratioP2;P2;SDS_P1;SDS_P2;PMS_P1;PMS_P2;Temp;Humidity;BMP_temperature;BMP_pressure;BME280_temperature;BME280_humidity;BME280_pressure;Samples;Min_cycle;Max_cycle;Signal;HPM_P1;HPM_P2
2021/08/04 00:01:38;;;;;;;3.33;3.13;;;17.70;99.90;;;;;;5093323;28;20444;-66
2021/08/04 00:04:04;;;;;;;3.20;2.90;;;17.70;99.90;;;;;;5093856;28;20200;-67
2021/08/04 00:06:29;;;;;;;3.20;2.40;;;17.70;99.90;;;;;;5092263;28;20234;-67
2021/08/04 00:08:59;;;;;;;4.77;3.40;;;17.70;99.90;;;;;;5093651;28;20469;-67
2021/08/04 00:11:25;;;;;;;3.63;2.87;;;17.70;99.90;;;;;;5093732;28;20539;-67
2021/08/04 00:13:52;;;;;;;3.53;3.23;;;17.70;99.90;;;;;;5093749;28;20481;-68
2021/08/04 00:16:17;;;;;;;3.63;3.00;;;17.70;99.90;;;;;;5093725;28;20176;-67
2021/08/04 00:18:43;;;;;;;4.87;2.63;;;17.60;99.90;;;;;;5093445;28;20468;-67
2021/08/04 00:21:08;;;;;;;3.93;2.90;;;17.70;99.90;;;;;;5093248;28;20232;-67
2021/08/04 00:23:34;;;;;;;3.60;2.80;;;17.70;99.90;;;;;;5093407;28;20195;-67
2021/08/04 00:25:59;;;;;;;4.93;3.53;;;17.60;99.90;;;;;;5093300;28;20182;-68
2021/08/04 00:28:25;;;;;;;2.87;2.67;;;17.60;99.90;;;;;;5093337;28;20161;-67
2021/08/04 00:30:51;;;;;;;2.93;2.73;;;17.50;99.90;;;;;;5093532;28;20203;-66
2021/08/04 00:33:17;;;;;;;4.10;3.17;;;17.50;99.90;;;;;;5093387;28;20495;-68
2021/08/04 00:35:44;;;;;;;3.10;2.90;;;17.50;99.90;;;;;;5093140;28;20167;-66
2021/08/04 00:38:12;;;;;;;3.20;2.90;;;17.50;99.90;;;;;;5093103;28;20171;-66
2021/08/04 00:40:39;;;;;;;5.10;3.20;;;17.40;99.90;;;;;;5093112;28;20455;-67
2021/08/04 00:43:05;;;;;;;3.17;2.63;;;17.40;99.90;;;;;;5092938;28;20942;-67
2021/08/04 00:45:31;;;;;;;5.03;3.40;;;17.40;99.90;;;;;;5092975;28;20408;-66
2021/08/04 00:47:57;;;;;;;3.13;2.80;;;17.40;99.90;;;;;;5092903;28;20509;-67
2021/08/04 00:50:25;;;;;;;3.53;3.23;;;17.40;99.90;;;;;;5093135;28;20601;-67
2021/08/04 00:52:51;;;;;;;3.57;2.90;;;17.40;99.90;;;;;;5091713;28;20163;-66
2021/08/04 00:55:16;;;;;;;3.57;3.27;;;17.40;99.90;;;;;;5092861;28;20403;-67
2021/08/04 00:57:42;;;;;;;6.00;3.50;;;17.30;99.90;;;;;;5092726;28;20175;-68
2021/08/04 01:00:11;;;;;;;3.70;3.00;;;17.30;99.90;;;;;;5092727;28;20187;-67
2021/08/04 01:02:53;;;;;;;3.13;2.73;;;17.30;99.90;;;;;;5092611;28;20539;-67
2021/08/04 01:05:26;;;;;;;3.97;3.23;;;17.30;99.90;;;;;;5092643;28;20482;-67
2021/08/04 01:08:08;;;;;;;3.10;2.90;;;17.30;99.90;;;;;;5092279;28;20402;-67
2021/08/04 01:10:39;;;;;;;3.07;2.83;;;17.30;99.90;;;;;;5076225;28;20940;-67
2021/08/04 01:13:26;;;;;;;2.50;2.30;;;17.30;99.90;;;;;;5091435;28;20459;-67
2021/08/04 01:16:06;;;;;;;3.17;2.80;;;17.30;99.90;;;;;;5092486;28;20407;-68
2021/08/04 01:18:41;;;;;;;3.27;2.97;;;17.30;99.90;;;;;;5092598;28;20419;-68
2021/08/04 01:21:10;;;;;;;4.40;3.13;;;17.20;99.90;;;;;;5091089;28;20430;-68
2021/08/04 01:23:57;;;;;;;3.60;2.90;;;17.30;99.90;;;;;;5090974;28;20873;-66
2021/08/04 01:26:31;;;;;;;3.67;3.37;;;17.20;99.90;;;;;;5092355;28;20405;-67
2021/08/04 01:28:59;;;;;;;4.03;3.37;;;17.20;99.90;;;;;;5092141;28;20433;-66
2021/08/04 01:31:27;;;;;;;3.07;2.60;;;17.20;99.90;;;;;;5092264;28;20951;-66
2021/08/04 01:33:54;;;;;;;3.53;2.50;;;17.20;99.90;;;;;;5092076;28;20924;-67
2021/08/04 01:36:21;;;;;;;3.63;3.33;;;17.10;99.90;;;;;;5091050;28;20808;-67
2021/08/04 01:38:47;;;;;;;3.37;3.07;;;17.10;99.90;;;;;;5092197;28;20447;-68
2021/08/04 01:41:15;;;;;;;3.27;2.97;;;17.10;99.90;;;;;;5091719;28;20437;-67
2021/08/04 01:43:42;;;;;;;2.80;2.60;;;17.10;99.90;;;;;;5091899;28;20453;-67
2021/08/04 01:46:10;;;;;;;5.60;3.80;;;17.10;99.90;;;;;;5090804;28;20500;-68
2021/08/04 01:48:38;;;;;;;3.33;2.53;;;17.10;99.90;;;;;;5089032;28;20417;-67
2021/08/04 01:51:07;;;;;;;3.20;2.87;;;17.10;99.90;;;;;;5091883;28;20425;-67
2021/08/04 01:53:37;;;;;;;3.67;3.13;;;17.10;99.90;;;;;;5091837;28;21000;-67
2021/08/04 01:56:03;;;;;;;3.07;2.77;;;17.10;99.90;;;;;;5091598;28;20827;-67
2021/08/04 01:58:29;;;;;;;4.17;3.87;;;17.00;99.90;;;;;;5091701;28;20442;-68
2021/08/04 02:00:54;;;;;;;3.60;3.30;;;17.00;99.90;;;;;;5091791;28;20453;-66
2021/08/04 02:03:20;;;;;;;4.67;3.80;;;17.00;99.90;;;;;;5091668;28;20243;-68
2021/08/04 02:05:46;;;;;;;3.90;3.60;;;17.00;99.90;;;;;;5091686;28;20240;-67
2021/08/04 02:08:46;;;;;;;3.93;3.50;;;17.00;99.90;;;;;;5091739;28;20220;-67
2021/08/04 02:11:26;;;;;;;3.40;3.17;;;17.00;99.90;;;;;;5072448;28;20432;-67
2021/08/04 02:14:07;;;;;;;3.83;3.50;;;17.00;99.90;;;;;;5091737;28;20408;-68
2021/08/04 02:16:51;;;;;;;4.40;3.67;;;17.00;99.90;;;;;;5091770;28;20404;-66
2021/08/04 02:19:26;;;;;;;5.90;3.77;;;17.00;99.90;;;;;;5091486;28;20418;-67
2021/08/04 02:22:03;;;;;;;4.90;3.77;;;17.00;99.90;;;;;;5073559;28;20441;-67
2021/08/04 02:24:32;;;;;;;4.53;4.00;;;17.00;99.90;;;;;;5075357;28;20444;-67
2021/08/04 02:27:00;;;;;;;4.53;3.57;;;17.00;99.90;;;;;;5095618;28;20408;-67
2021/08/04 02:29:27;;;;;;;3.97;3.67;;;17.00;99.90;;;;;;5095588;28;20475;-67
2021/08/04 02:31:53;;;;;;;5.03;3.40;;;17.00;99.90;;;;;;5095523;28;20425;-67
2021/08/04 02:34:19;;;;;;;4.00;3.40;;;16.90;99.90;;;;;;5095869;28;20527;-67
2021/08/04 02:36:45;;;;;;;4.30;3.90;;;16.90;99.90;;;;;;5095890;28;20175;-67
2021/08/04 02:39:10;;;;;;;4.40;4.00;;;16.90;99.90;;;;;;5095793;28;20426;-67
2021/08/04 02:41:36;;;;;;;3.70;3.40;;;16.90;99.90;;;;;;5095628;28;20194;-67
2021/08/04 02:44:02;;;;;;;6.43;4.00;;;16.90;99.90;;;;;;5097372;28;20256;-68
2021/08/04 02:46:29;;;;;;;5.53;3.30;;;16.90;99.90;;;;;;5098695;28;20407;-68
2021/08/04 02:48:57;;;;;;;3.83;3.53;;;16.90;99.90;;;;;;5097356;28;20409;-69
2021/08/04 02:51:28;;;;;;;4.30;3.97;;;16.90;99.90;;;;;;5096158;28;20509;-67
2021/08/04 02:53:59;;;;;;;4.37;3.37;;;16.90;99.90;;;;;;5094604;28;20408;-67
2021/08/04 02:56:25;;;;;;;4.70;3.13;;;16.90;99.90;;;;;;5094586;28;20423;-66
2021/08/04 02:58:53;;;;;;;4.47;3.20;;;16.90;99.90;;;;;;5095728;28;20401;-66
2021/08/04 03:01:18;;;;;;;3.40;3.10;;;16.90;99.90;;;;;;5095609;28;20501;-67
2021/08/04 03:03:44;;;;;;;3.60;3.30;;;16.80;99.90;;;;;;5094990;28;20474;-67
2021/08/04 03:06:10;;;;;;;3.63;3.33;;;16.80;99.90;;;;;;5095007;28;20263;-68
2021/08/04 03:08:37;;;;;;;5.10;4.43;;;16.80;99.90;;;;;;5094791;28;20530;-67
2021/08/04 03:11:02;;;;;;;6.27;3.47;;;16.80;99.90;;;;;;5094432;28;20182;-67
2021/08/04 03:13:28;;;;;;;3.20;2.83;;;16.80;99.90;;;;;;5094931;28;20408;-68
2021/08/04 03:15:56;;;;;;;3.47;3.17;;;16.80;99.90;;;;;;5094928;28;20191;-68
2021/08/04 03:18:22;;;;;;;3.73;3.47;;;16.80;99.90;;;;;;5094635;28;20174;-66
2021/08/04 03:20:47;;;;;;;5.67;4.00;;;16.80;99.90;;;;;;5094571;28;20426;-66
2021/08/04 03:23:13;;;;;;;3.00;2.80;;;16.80;99.90;;;;;;5094588;28;20199;-68
2021/08/04 03:25:38;;;;;;;4.07;3.67;;;16.70;99.90;;;;;;5094557;28;20264;-69
2021/08/04 03:28:04;;;;;;;5.40;3.60;;;16.70;99.90;;;;;;5094616;28;20205;-67
2021/08/04 03:30:30;;;;;;;3.80;2.93;;;16.60;99.90;;;;;;5094587;28;20188;-67
2021/08/04 03:32:55;;;;;;;4.90;3.80;;;16.70;99.90;;;;;;5094476;28;20409;-68
2021/08/04 03:35:21;;;;;;;4.23;3.80;;;16.70;99.90;;;;;;5094431;28;20252;-68
2021/08/04 03:37:46;;;;;;;4.73;4.10;;;16.70;99.90;;;;;;5093553;28;20198;-68
2021/08/04 03:40:12;;;;;;;5.53;4.83;;;16.60;99.90;;;;;;5094264;28;20243;-67
2021/08/04 03:42:37;;;;;;;5.07;4.67;;;16.50;99.90;;;;;;5094512;28;20170;-67
2021/08/04 03:45:04;;;;;;;5.00;4.60;;;16.50;99.90;;;;;;5094392;28;20208;-69
2021/08/04 03:47:29;;;;;;;5.30;4.20;;;16.50;99.90;;;;;;5094407;28;20646;-68
2021/08/04 03:49:55;;;;;;;3.67;3.37;;;16.60;99.90;;;;;;5092685;28;20441;-67
2021/08/04 03:52:20;;;;;;;4.33;3.97;;;16.60;99.90;;;;;;5093948;28;20245;-66
2021/08/04 03:54:46;;;;;;;4.07;3.70;;;16.60;99.90;;;;;;5094261;28;20597;-67
2021/08/04 03:57:11;;;;;;;5.50;4.50;;;16.60;99.90;;;;;;5094156;28;20652;-67
2021/08/04 03:59:37;;;;;;;5.00;4.50;;;16.50;99.90;;;;;;5094146;28;20279;-67
2021/08/04 04:02:03;;;;;;;4.70;4.30;;;16.50;99.90;;;;;;5093682;28;20221;-67
2021/08/04 04:04:31;;;;;;;4.23;3.80;;;16.50;99.90;;;;;;5093790;28;20238;-67
2021/08/04 04:06:56;;;;;;;5.07;4.60;;;16.60;99.90;;;;;;5093554;28;20896;-67
2021/08/04 04:09:22;;;;;;;5.10;4.60;;;16.60;99.90;;;;;;5093716;28;20397;-68
2021/08/04 04:11:47;;;;;;;4.43;4.03;;;16.50;99.90;;;;;;5093680;28;20189;-68
2021/08/04 04:14:12;;;;;;;4.87;4.47;;;16.60;99.90;;;;;;5093710;28;20607;-67
2021/08/04 04:16:38;;;;;;;4.53;4.00;;;16.60;99.90;;;;;;5093676;28;20170;-68
2021/08/04 04:19:04;;;;;;;9.40;4.93;;;16.50;99.90;;;;;;5093575;28;20245;-67
2021/08/04 04:21:31;;;;;;;5.33;4.40;;;16.50;99.90;;;;;;5093482;28;20196;-66
2021/08/04 04:23:56;;;;;;;7.67;3.77;;;16.50;99.90;;;;;;5093291;28;20661;-67
2021/08/04 04:26:22;;;;;;;5.33;4.83;;;16.50;99.90;;;;;;5093422;28;20443;-69
2021/08/04 04:28:47;;;;;;;4.23;3.80;;;16.60;99.90;;;;;;5093519;28;20162;-67
2021/08/04 04:31:13;;;;;;;5.07;4.20;;;16.60;99.90;;;;;;5093329;28;20191;-65
2021/08/04 04:33:38;;;;;;;7.40;5.00;;;16.70;99.90;;;;;;5093266;28;20166;-66
2021/08/04 04:36:04;;;;;;;5.57;4.70;;;16.60;99.90;;;;;;5093306;28;20310;-68
2021/08/04 04:38:30;;;;;;;4.87;4.47;;;16.60;99.90;;;;;;5093037;28;20259;-67
2021/08/04 04:40:57;;;;;;;6.90;5.07;;;16.60;99.90;;;;;;5092993;28;20563;-68
2021/08/04 04:43:25;;;;;;;4.80;4.33;;;16.70;99.90;;;;;;5093311;28;20297;-68
2021/08/04 04:45:51;;;;;;;5.23;4.73;;;16.70;99.90;;;;;;5093366;28;20409;-69
2021/08/04 04:48:16;;;;;;;5.57;5.07;;;16.70;99.90;;;;;;5093113;28;20472;-67
2021/08/04 04:50:42;;;;;;;5.20;4.70;;;16.70;99.90;;;;;;5093050;28;20195;-68
2021/08/04 04:53:08;;;;;;;5.27;4.87;;;16.70;99.90;;;;;;5092895;28;20258;-67
2021/08/04 04:55:33;;;;;;;4.97;4.60;;;16.60;99.90;;;;;;5092954;28;20173;-67
2021/08/04 04:57:59;;;;;;;6.03;5.40;;;16.60;99.90;;;;;;5092874;28;20526;-69
2021/08/04 05:00:27;;;;;;;5.47;4.97;;;16.70;99.90;;;;;;5092853;28;20190;-67
2021/08/04 05:02:53;;;;;;;6.80;6.00;;;16.70;99.90;;;;;;5092655;28;20755;-66
2021/08/04 05:05:18;;;;;;;5.50;5.07;;;16.70;99.90;;;;;;5092688;28;20430;-66
2021/08/04 05:07:44;;;;;;;6.37;5.77;;;16.80;99.90;;;;;;5092675;28;20167;-68
2021/08/04 05:10:10;;;;;;;5.73;5.23;;;16.80;99.90;;;;;;5092575;28;20187;-67
2021/08/04 05:12:35;;;;;;;6.13;5.53;;;16.80;99.90;;;;;;5092603;28;20235;-69
2021/08/04 05:15:06;;;;;;;5.83;5.33;;;16.90;99.90;;;;;;5092650;28;20172;-67
2021/08/04 05:17:35;;;;;;;7.87;5.80;;;16.80;99.90;;;;;;5092813;28;20186;-68
2021/08/04 05:20:01;;;;;;;4.90;4.50;;;16.90;99.90;;;;;;5092359;28;20453;-67
2021/08/04 05:22:26;;;;;;;5.43;5.00;;;16.90;99.90;;;;;;5092622;28;20409;-67
2021/08/04 05:24:52;;;;;;;6.23;5.37;;;16.90;99.90;;;;;;5092627;28;20723;-68
2021/08/04 05:27:17;;;;;;;6.20;5.70;;;16.90;99.90;;;;;;5091145;28;20175;-66
2021/08/04 05:29:43;;;;;;;6.20;5.17;;;17.00;99.90;;;;;;5092474;28;20188;-66
2021/08/04 05:32:08;;;;;;;5.40;5.00;;;17.00;99.90;;;;;;5092300;28;20168;-67
2021/08/04 05:34:34;;;;;;;6.30;5.80;;;17.10;99.90;;;;;;5092313;28;20175;-67
2021/08/04 05:36:59;;;;;;;6.93;6.23;;;17.10;99.90;;;;;;5092441;28;20177;-67
2021/08/04 05:39:25;;;;;;;6.00;5.50;;;17.10;99.90;;;;;;5092189;28;20171;-67
2021/08/04 05:41:50;;;;;;;6.40;5.80;;;17.30;99.90;;;;;;5092178;28;20192;-69
2021/08/04 05:44:15;;;;;;;6.77;5.80;;;17.30;99.90;;;;;;5092144;28;20199;-67
2021/08/04 05:46:41;;;;;;;7.20;6.50;;;17.30;99.90;;;;;;5092120;28;20242;-68
2021/08/04 05:49:06;;;;;;;7.90;6.30;;;17.50;99.90;;;;;;5091957;28;20173;-68
2021/08/04 05:51:32;;;;;;;6.90;5.00;;;17.50;99.90;;;;;;5091844;28;20558;-67
2021/08/04 05:53:57;;;;;;;6.13;5.40;;;17.60;99.90;;;;;;5091938;28;20229;-67
2021/08/04 05:56:23;;;;;;;6.10;5.50;;;17.60;99.90;;;;;;5091996;28;20686;-67
2021/08/04 05:58:48;;;;;;;5.43;5.00;;;17.60;99.90;;;;;;5091756;28;20600;-66
2021/08/04 06:01:17;;;;;;;5.90;5.20;;;17.70;99.90;;;;;;5090119;28;20683;-67
2021/08/04 06:03:42;;;;;;;5.90;5.27;;;17.80;99.90;;;;;;5091854;28;20570;-67
2021/08/04 06:06:09;;;;;;;8.40;5.30;;;18.00;99.90;;;;;;5091811;28;20419;-66
2021/08/04 06:08:35;;;;;;;5.43;4.93;;;17.90;99.90;;;;;;5092003;28;20164;-68
2021/08/04 06:11:01;;;;;;;5.50;5.00;;;18.00;99.90;;;;;;5092067;28;20493;-67
2021/08/04 06:13:29;;;;;;;5.90;5.30;;;18.00;99.90;;;;;;5081788;28;20435;-68
2021/08/04 06:15:55;;;;;;;5.70;5.20;;;18.00;99.90;;;;;;5090927;28;20173;-68
2021/08/04 06:18:21;;;;;;;7.30;5.80;;;18.00;99.90;;;;;;5089687;28;20436;-66
2021/08/04 06:20:47;;;;;;;5.80;5.27;;;17.80;99.90;;;;;;5091296;28;20285;-67
2021/08/04 06:23:12;;;;;;;5.63;4.90;;;17.90;99.90;;;;;;5091176;28;20193;-66
2021/08/04 06:25:38;;;;;;;5.33;4.90;;;17.90;99.90;;;;;;5091299;28;20407;-67
2021/08/04 06:28:03;;;;;;;5.43;5.03;;;17.90;99.90;;;;;;5091398;28;20572;-66
2021/08/04 06:30:29;;;;;;;5.27;4.77;;;18.10;99.90;;;;;;5091761;28;20184;-67
2021/08/04 06:32:54;;;;;;;5.57;5.07;;;18.20;99.90;;;;;;5090283;28;20258;-67
2021/08/04 06:35:20;;;;;;;4.63;4.23;;;18.30;99.90;;;;;;5091584;28;20167;-67
2021/08/04 06:37:46;;;;;;;5.27;4.77;;;18.40;99.90;;;;;;5091584;28;20166;-66
2021/08/04 06:40:12;;;;;;;6.20;5.30;;;18.50;99.90;;;;;;5091905;28;20198;-66
2021/08/04 06:42:38;;;;;;;5.53;4.90;;;18.60;99.90;;;;;;5090818;28;20176;-67
2021/08/04 06:45:04;;;;;;;4.60;4.20;;;18.70;99.90;;;;;;5091486;28;20526;-67
2021/08/04 06:47:29;;;;;;;4.70;4.20;;;18.90;99.90;;;;;;5091346;28;20168;-67
2021/08/04 06:49:55;;;;;;;4.73;4.20;;;19.20;99.90;;;;;;5091364;28;20846;-68
2021/08/04 06:52:20;;;;;;;3.77;3.47;;;18.90;99.90;;;;;;5091382;28;20615;-67
2021/08/04 06:54:46;;;;;;;8.60;4.47;;;19.00;99.90;;;;;;5091422;28;20189;-66
2021/08/04 06:57:11;;;;;;;4.27;3.97;;;19.00;99.90;;;;;;5091516;28;20669;-67
2021/08/04 06:59:37;;;;;;;4.13;3.37;;;19.20;99.90;;;;;;5091392;28;20179;-68
2021/08/04 07:02:05;;;;;;;3.80;3.50;;;19.70;99.90;;;;;;5091192;28;20813;-67
2021/08/04 07:04:31;;;;;;;4.37;4.03;;;19.70;99.90;;;;;;5091081;28;20216;-67
2021/08/04 07:06:58;;;;;;;3.97;3.67;;;19.70;99.90;;;;;;5091337;28;20404;-67
2021/08/04 07:09:27;;;;;;;5.07;3.90;;;19.80;99.90;;;;;;5091401;28;20160;-67
2021/08/04 07:11:53;;;;;;;4.63;3.90;;;19.80;99.90;;;;;;5092726;28;20501;-68
2021/08/04 07:14:19;;;;;;;3.90;3.60;;;19.90;99.90;;;;;;5095076;28;21100;-67
2021/08/04 07:16:46;;;;;;;3.97;3.60;;;19.60;99.90;;;;;;5094805;28;20406;-67
2021/08/04 07:19:11;;;;;;;4.00;3.60;;;19.50;99.90;;;;;;5094790;28;20212;-68
2021/08/04 07:21:40;;;;;;;4.40;3.57;;;19.90;99.90;;;;;;5094320;28;20967;-68
2021/08/04 07:24:07;;;;;;;3.27;2.97;;;19.70;99.90;;;;;;5094774;28;20197;-68
2021/08/04 07:26:34;;;;;;;3.67;3.37;;;19.80;99.90;;;;;;5087870;28;20925;-66
2021/08/04 07:29:00;;;;;;;3.60;2.90;;;19.60;99.90;;;;;;5076457;28;20422;-76
2021/08/04 07:31:25;;;;;;;3.47;3.03;;;19.70;99.90;;;;;;5088583;28;20434;-66
2021/08/04 07:33:51;;;;;;;4.03;3.63;;;19.90;99.90;;;;;;5074684;28;20620;-71
2021/08/04 07:36:17;;;;;;;3.80;3.30;;;19.90;99.90;;;;;;5074223;28;20187;-67
2021/08/04 07:38:42;;;;;;;3.70;3.40;;;20.10;99.90;;;;;;5073710;28;20188;-67
2021/08/04 07:41:08;;;;;;;3.73;3.40;;;19.60;99.90;;;;;;5085843;28;20205;-67
2021/08/04 07:43:34;;;;;;;3.23;3.03;;;19.60;99.90;;;;;;5092643;28;20192;-67
2021/08/04 07:45:59;;;;;;;3.53;3.17;;;19.80;99.90;;;;;;5092572;28;20544;-67
2021/08/04 07:48:25;;;;;;;4.40;3.40;;;19.90;99.90;;;;;;5090293;28;20172;-67
2021/08/04 07:50:50;;;;;;;2.73;2.53;;;20.10;99.90;;;;;;5088844;28;20195;-68
2021/08/04 07:53:16;;;;;;;5.67;3.10;;;20.50;99.90;;;;;;5088831;28;20711;-68
2021/08/04 07:55:41;;;;;;;3.60;3.10;;;20.30;99.90;;;;;;5089850;28;20178;-68
2021/08/04 07:58:07;;;;;;;3.70;3.40;;;20.10;99.90;;;;;;5093015;28;20548;-67
2021/08/04 08:00:32;;;;;;;3.43;3.23;;;20.20;99.90;;;;;;5092005;28;20580;-68
2021/08/04 08:02:58;;;;;;;3.60;3.30;;;20.40;99.90;;;;;;5091743;28;20695;-68
2021/08/04 08:05:24;;;;;;;6.03;3.53;;;20.50;99.90;;;;;;5088678;28;20212;-68
2021/08/04 08:07:50;;;;;;;3.73;3.40;;;20.20;99.90;;;;;;5086621;28;20187;-69
2021/08/04 08:10:18;;;;;;;5.00;3.33;;;20.40;99.90;;;;;;5086309;28;20190;-69
2021/08/04 08:12:44;;;;;;;3.37;3.07;;;20.60;99.90;;;;;;5086793;28;20423;-67
2021/08/04 08:15:12;;;;;;;5.23;3.47;;;20.80;99.90;;;;;;5089285;28;20432;-67
2021/08/04 08:17:38;;;;;;;4.50;3.17;;;20.80;99.90;;;;;;5085323;28;20465;-67
2021/08/04 08:20:05;;;;;;;4.33;3.60;;;20.80;99.90;;;;;;5089189;28;20796;-67
2021/08/04 08:22:31;;;;;;;5.00;3.30;;;20.80;99.90;;;;;;5084230;28;20984;-68
2021/08/04 08:24:57;;;;;;;5.27;3.20;;;20.60;99.90;;;;;;5090454;28;20510;-68
2021/08/04 08:27:22;;;;;;;3.40;3.10;;;20.60;99.90;;;;;;5090219;28;20165;-67
2021/08/04 08:29:48;;;;;;;3.53;3.23;;;20.30;99.90;;;;;;5091743;28;20184;-67
2021/08/04 08:32:13;;;;;;;4.97;4.47;;;20.60;99.90;;;;;;5088774;28;20624;-69
2021/08/04 08:34:39;;;;;;;3.37;2.97;;;20.80;99.90;;;;;;5082453;28;20194;-67
2021/08/04 08:37:04;;;;;;;4.40;3.33;;;20.50;99.90;;;;;;5084422;28;20212;-67
2021/08/04 08:39:31;;;;;;;3.77;3.47;;;20.60;99.90;;;;;;5081383;28;20261;-67
2021/08/04 08:42:01;;;;;;;4.47;4.07;;;20.20;99.90;;;;;;5085991;28;20649;-67
2021/08/04 08:44:27;;;;;;;4.53;3.50;;;20.70;99.90;;;;;;5086244;28;20984;-69
2021/08/04 08:46:54;;;;;;;4.13;3.63;;;21.00;99.90;;;;;;5088494;28;20416;-68
2021/08/04 08:49:27;;;;;;;3.93;3.40;;;21.20;99.90;;;;;;5087253;28;20909;-69
2021/08/04 08:51:54;;;;;;;3.63;3.33;;;20.90;99.90;;;;;;5086506;28;20444;-68
2021/08/04 08:54:20;;;;;;;4.33;4.03;;;21.10;99.90;;;;;;5088050;28;20544;-69
2021/08/04 08:56:46;;;;;;;7.53;3.17;;;21.50;99.90;;;;;;5088758;28;20888;-69
2021/08/04 08:59:15;;;;;;;5.40;3.07;;;21.30;99.90;;;;;;5079304;28;20513;-67
2021/08/04 09:01:41;;;;;;;3.27;2.97;;;21.40;99.90;;;;;;5082237;28;20205;-67
2021/08/04 09:04:15;;;;;;;4.77;3.10;;;21.60;99.90;;;;;;5084698;28;20457;-68
2021/08/04 09:06:48;;;;;;;3.80;2.90;;;21.80;99.90;;;;;;5087392;28;20926;-68
2021/08/04 09:09:22;;;;;;;3.07;2.87;;;21.90;99.90;;;;;;5087587;28;20426;-67
2021/08/04 09:11:53;;;;;;;2.60;2.40;;;21.90;99.90;;;;;;5085787;28;20436;-67
2021/08/04 09:14:27;;;;;;;2.90;2.20;;;22.30;99.90;;;;;;5081649;28;20410;-67
2021/08/04 09:17:00;;;;;;;4.43;2.60;;;22.60;99.90;;;;;;5090297;28;20445;-67
2021/08/04 09:19:27;;;;;;;2.73;2.53;;;22.90;99.90;;;;;;5078926;28;20450;-65
2021/08/04 09:22:10;;;;;;;2.50;2.30;;;22.80;99.90;;;;;;5090613;28;20864;-70
2021/08/04 09:25:08;;;;;;;4.40;2.90;;;22.60;99.90;;;;;;5081307;28;20939;-66
2021/08/04 09:27:53;;;;;;;3.13;2.83;;;22.60;99.90;;;;;;5083500;28;20520;-66
2021/08/04 09:30:34;;;;;;;3.10;2.63;;;22.40;99.90;;;;;;5087328;28;20432;-66
2021/08/04 09:33:12;;;;;;;2.90;2.70;;;22.60;99.90;;;;;;5086647;28;20427;-67
2021/08/04 09:35:41;;;;;;;3.33;2.80;;;22.60;99.90;;;;;;5087160;28;20418;-67
2021/08/04 09:38:07;;;;;;;3.23;2.60;;;22.70;99.90;;;;;;5088420;28;20476;-66
2021/08/04 09:40:32;;;;;;;3.00;2.80;;;23.00;99.90;;;;;;5083752;28;20435;-66
2021/08/04 09:42:59;;;;;;;3.60;2.50;;;24.00;99.90;;;;;;5087631;28;20184;-68
2021/08/04 09:45:46;;;;;;;6.27;2.87;;;24.60;99.90;;;;;;5085794;28;20177;-66
2021/08/04 09:48:16;;;;;;;2.67;2.47;;;23.70;99.90;;;;;;5088478;28;20421;-68
2021/08/04 09:50:46;;;;;;;3.07;2.60;;;23.30;99.90;;;;;;5088586;28;20433;-67
2021/08/04 09:53:26;;;;;;;3.90;2.70;;;23.30;99.90;;;;;;5090283;28;20417;-67
2021/08/04 09:56:20;;;;;;;6.33;2.93;;;24.00;99.90;;;;;;5090884;28;20410;-66
2021/08/04 09:58:48;;;;;;;2.83;2.53;;;23.80;99.90;;;;;;5079007;28;20415;-66
2021/08/04 10:01:16;;;;;;;3.30;2.43;;;23.50;99.90;;;;;;5082607;28;20448;-66
2021/08/04 10:04:01;;;;;;;3.63;2.37;;;24.00;99.90;;;;;;5076606;28;20488;-66
2021/08/04 10:06:28;;;;;;;2.90;2.70;;;24.00;99.90;;;;;;5079164;28;20433;-68
2021/08/04 10:08:57;;;;;;;2.27;2.07;;;23.60;99.90;;;;;;5084774;28;20447;-70
2021/08/04 10:11:24;;;;;;;3.90;2.70;;;23.40;99.90;;;;;;5087624;28;20525;-70
2021/08/04 10:13:51;;;;;;;2.40;1.93;;;23.30;99.90;;;;;;5084956;28;20480;-67
2021/08/04 10:16:18;;;;;;;2.30;2.10;;;23.10;99.90;;;;;;5086606;28;20437;-68
2021/08/04 10:18:44;;;;;;;2.30;2.20;;;23.00;99.90;;;;;;5090133;28;20422;-66
2021/08/04 10:21:13;;;;;;;4.87;2.23;;;23.20;99.90;;;;;;5090096;28;20475;-67
2021/08/04 10:23:44;;;;;;;3.63;3.20;;;23.30;99.90;;;;;;5083267;28;20988;-68
2021/08/04 10:26:16;;;;;;;2.43;2.23;;;22.80;99.90;;;;;;5082767;28;20433;-67
2021/08/04 10:28:45;;;;;;;2.50;2.30;;;22.60;99.90;;;;;;5081366;28;20431;-68
2021/08/04 10:31:14;;;;;;;2.50;2.30;;;22.70;99.90;;;;;;5085064;28;20810;-68
2021/08/04 10:33:41;;;;;;;3.20;2.20;;;22.30;99.90;;;;;;5085781;28;20426;-69
2021/08/04 10:36:18;;;;;;;3.57;2.47;;;22.10;99.90;;;;;;5087482;28;20897;-68
2021/08/04 10:38:50;;;;;;;3.30;2.10;;;22.60;99.90;;;;;;5086407;28;20475;-68
2021/08/04 10:41:24;;;;;;;2.90;2.60;;;22.60;99.90;;;;;;5086298;28;20443;-68
2021/08/04 10:44:02;;;;;;;2.97;2.67;;;23.10;99.90;;;;;;5086188;28;20454;-68
2021/08/04 10:46:30;;;;;;;2.97;2.77;;;23.30;99.90;;;;;;5086544;28;21053;-66
2021/08/04 10:49:05;;;;;;;2.87;2.60;;;23.20;99.90;;;;;;5087728;28;20407;-67
2021/08/04 10:51:32;;;;;;;2.80;2.60;;;23.10;99.90;;;;;;5093322;28;20426;-67
2021/08/04 10:54:00;;;;;;;2.53;2.37;;;22.80;99.90;;;;;;5086227;28;20457;-66
2021/08/04 10:56:32;;;;;;;4.37;2.30;;;22.50;99.90;;;;;;5094795;28;20780;-67
2021/08/04 10:59:12;;;;;;;2.87;2.63;;;22.30;99.90;;;;;;5086845;28;20911;-66
2021/08/04 11:01:55;;;;;;;5.03;2.73;;;22.30;99.90;;;;;;5087242;28;20435;-67
2021/08/04 11:04:32;;;;;;;2.87;2.30;;;22.10;99.90;;;;;;5080017;28;20490;-66
2021/08/04 11:07:19;;;;;;;3.70;2.40;;;22.00;99.90;;;;;;5086529;28;20515;-67
2021/08/04 11:09:57;;;;;;;2.33;2.13;;;21.90;99.90;;;;;;5087727;28;20504;-69
2021/08/04 11:12:34;;;;;;;3.53;2.00;;;21.90;99.90;;;;;;5084280;28;20405;-68
2021/08/04 11:15:02;;;;;;;2.37;2.17;;;21.80;99.90;;;;;;5093327;28;20430;-67
2021/08/04 11:17:29;;;;;;;3.13;2.37;;;21.90;99.90;;;;;;5092529;28;20414;-67
2021/08/04 11:22:41;;;;;;;3.00;2.70;;;21.70;99.90;;;;;;5092882;28;20469;-68
2021/08/04 11:25:26;;;;;;;5.60;2.30;;;21.80;99.90;;;;;;5084304;28;20457;-67
2021/08/04 11:27:52;;;;;;;3.63;2.30;;;21.90;99.90;;;;;;5082933;28;20427;-68
2021/08/04 11:30:37;;;;;;;3.30;2.70;;;22.00;99.90;;;;;;5088470;28;20441;-69
2021/08/04 11:33:18;;;;;;;2.10;2.00;;;22.10;99.90;;;;;;5087511;28;20801;-67
2021/08/04 11:35:58;;;;;;;2.33;2.13;;;22.30;99.90;;;;;;5091043;28;20415;-68
2021/08/04 11:38:53;;;;;;;3.50;2.23;;;22.40;99.90;;;;;;5084791;28;20416;-68
2021/08/04 11:41:40;;;;;;;2.73;2.20;;;22.30;99.90;;;;;;5083941;28;20482;-68
2021/08/04 11:44:16;;;;;;;2.17;1.80;;;22.10;99.90;;;;;;5089696;28;20458;-67
2021/08/04 11:46:50;;;;;;;2.47;2.10;;;22.20;99.90;;;;;;5092421;28;20421;-66
2021/08/04 11:49:24;;;;;;;2.20;2.00;;;22.50;99.90;;;;;;5091152;28;20440;-68
2021/08/04 11:51:53;;;;;;;2.37;1.90;;;22.60;99.90;;;;;;5091666;28;20434;-67
2021/08/04 11:54:32;;;;;;;2.30;2.10;;;22.80;99.90;;;;;;5093706;28;20453;-67
2021/08/04 11:56:57;;;;;;;2.93;2.60;;;22.50;99.90;;;;;;5092319;28;20943;-67
2021/08/04 11:59:23;;;;;;;2.57;2.20;;;22.70;99.90;;;;;;5089271;28;20422;-67
2021/08/04 12:02:02;;;;;;;2.90;2.10;;;22.80;99.90;;;;;;5087472;28;20697;-68
2021/08/04 12:04:31;;;;;;;2.20;2.00;;;22.90;99.90;;;;;;5080353;28;20300;-67
2021/08/04 12:07:01;;;;;;;2.73;1.73;;;22.80;99.90;;;;;;5084957;28;20468;-69
2021/08/04 12:09:30;;;;;;;3.13;2.10;;;22.90;99.90;;;;;;5088782;28;20492;-69
2021/08/04 12:12:00;;;;;;;2.93;2.13;;;22.70;99.90;;;;;;5086793;28;20440;-69
2021/08/04 12:14:28;;;;;;;2.33;2.13;;;23.00;99.90;;;;;;5090787;28;20413;-69
2021/08/04 12:16:57;;;;;;;2.90;1.97;;;22.90;99.90;;;;;;5091340;28;20423;-69
2021/08/04 12:19:27;;;;;;;3.63;3.00;;;22.80;99.90;;;;;;5091504;28;20840;-68
2021/08/04 12:21:53;;;;;;;2.57;2.00;;;22.80;99.90;;;;;;5092506;28;20496;-68
2021/08/04 12:24:18;;;;;;;2.00;1.77;;;22.50;99.90;;;;;;5082492;28;20880;-68
2021/08/04 12:26:45;;;;;;;2.87;1.93;;;22.60;99.90;;;;;;5082762;28;20667;-69
2021/08/04 12:29:25;;;;;;;2.60;1.87;;;22.60;99.90;;;;;;5085884;28;20511;-68
2021/08/04 12:32:29;;;;;;;2.30;2.10;;;22.70;99.90;;;;;;5087956;28;20432;-69
2021/08/04 12:34:59;;;;;;;3.77;1.87;;;22.80;99.90;;;;;;5082727;28;20419;-69
2021/08/04 12:37:26;;;;;;;2.50;1.90;;;22.50;99.90;;;;;;5083477;28;20955;-68
2021/08/04 12:39:53;;;;;;;3.37;2.00;;;22.50;99.90;;;;;;5092629;28;20759;-69
2021/08/04 12:42:20;;;;;;;1.90;1.80;;;22.60;99.90;;;;;;5085118;28;20498;-67
2021/08/04 12:44:48;;;;;;;2.67;2.13;;;22.70;99.90;;;;;;5084424;28;20987;-69
2021/08/04 12:47:15;;;;;;;3.00;1.53;;;22.90;99.90;;;;;;5088902;28;20475;-68
2021/08/04 12:49:42;;;;;;;2.07;1.93;;;22.60;99.90;;;;;;5090087;28;20451;-68
2021/08/04 12:52:08;;;;;;;2.87;1.90;;;22.60;99.90;;;;;;5090451;28;20942;-68
2021/08/04 12:54:36;;;;;;;2.43;2.03;;;22.70;99.90;;;;;;5087856;28;20923;-69
2021/08/04 12:57:19;;;;;;;8.03;2.33;;;22.50;99.90;;;;;;5089398;28;20423;-68
2021/08/04 12:59:45;;;;;;;2.17;1.97;;;22.80;99.90;;;;;;5082363;28;20419;-69